Huvudsida
METAR-TAF:

METAR-TAF

Flygplatser :

King Hussein International Airport

Akaba, Jordanien

latitud: 29-38N, longitud: 035-01E, höjd: 53 m

Aktuellt väderrapport

Denna rapport gjordes för 1 timme och 11 minuter sedan, klockan 13:00 UTC
Vind 18 kt från nord
Temperatur 39°C
Fuktighet 23%
Tryck 1004 hPa
Sikt 10 km eller mer
Inga moln under 1 500 m eller inga cumulonimbus

METAR: OJAQ 241300Z 36018KT CAVOK 39/14 Q1004

Tid: 17:11 (14:11 UTC)

Väderprognos

Denna rapport gjordes för 3 timmar och 11 minuter sedan, klockan 11:00 UTC
Prognos gäller från 24 kl. 12 UTC till 25 kl. 18 UTC
Vind 15 kt från nord
Sikt: 7000 m
Sannolikhet 40%
från 24 kl. 12 UTC till 24 kl. 18 UTC
Vind 20 kt från nord
Sikt: 4000 m
högt damm drev

TAF: OJAQ 241100Z 2412/2518 36015KT 7000 NSC PROB40 2412/2418 36020KT 4000 BLDU

Aktuella väderrapporter och prognoser från 4000 flygplatser (METAR- och TAF-rapporter).

De tillgängliga stationerna syns som gula och röda prickar på kartan.

För musen över prickarna för att se namnen på stationerna.

Klicka sedan för att få väderrapporter och prognoser.

För att ändra kartan: Klicka på de gröna knapparna med ett svart kors på för att zooma in; den gröna knappen med ett streck på för att zooma ut; eller på de gröna pilarna för angränsande kartor.


METAR-TAF: